createdAt,value
2022-09-18T00:03:55.088Z,100.00
2022-09-18T00:08:58.107Z,100.00
2022-09-18T00:13:59.767Z,100.00
2022-09-18T00:19:01.565Z,100.00
2022-09-18T00:24:03.488Z,100.00
2022-09-18T00:29:05.187Z,100.00
2022-09-18T00:34:08.704Z,100.00
2022-09-18T00:39:10.364Z,100.00
2022-09-18T00:44:37.309Z,100.00
2022-09-18T00:49:51.268Z,100.00
2022-09-18T00:54:56.532Z,100.00
2022-09-18T00:59:58.495Z,100.00
2022-09-18T01:05:00.147Z,100.00
2022-09-18T01:10:12.383Z,100.00
2022-09-18T01:15:26.587Z,100.00
2022-09-18T01:21:04.953Z,100.00
2022-09-18T01:26:40.373Z,100.00
2022-09-18T01:31:51.129Z,100.00
2022-09-18T01:36:57.514Z,100.00
2022-09-18T01:41:59.342Z,100.00
2022-09-18T01:47:02.819Z,100.00
2022-09-18T01:52:23.354Z,100.00
2022-09-18T01:57:29.945Z,100.00
2022-09-18T02:02:42.830Z,100.00
2022-09-18T02:07:56.766Z,100.00
2022-09-18T02:12:58.411Z,100.00
2022-09-18T02:18:05.614Z,100.00
2022-09-18T02:23:12.826Z,100.00
2022-09-18T02:28:15.337Z,100.00
2022-09-18T02:33:31.130Z,100.00
2022-09-18T02:38:37.397Z,100.00
2022-09-18T02:43:59.023Z,100.00
2022-09-18T02:49:11.884Z,100.00
2022-09-18T02:54:40.263Z,100.00
2022-09-18T02:59:46.137Z,100.00
2022-09-18T03:04:49.857Z,100.00
2022-09-18T03:09:58.928Z,100.00
2022-09-18T03:15:00.662Z,100.00
2022-09-18T03:20:03.475Z,100.00
2022-09-18T03:25:05.852Z,100.00
2022-09-18T03:30:09.059Z,100.00
2022-09-18T03:35:11.918Z,100.00
2022-09-18T03:40:13.811Z,100.00
2022-09-18T03:45:16.024Z,100.00
2022-09-18T03:50:18.212Z,100.00
2022-09-18T03:55:20.051Z,100.00
2022-09-18T04:00:47.920Z,100.00
2022-09-18T04:05:59.904Z,100.00
2022-09-18T04:11:24.169Z,100.00
2022-09-18T04:16:25.969Z,100.00
2022-09-18T04:21:27.853Z,100.00
2022-09-18T04:26:29.864Z,100.00
2022-09-18T04:31:34.330Z,100.00
2022-09-18T04:36:40.677Z,100.00
2022-09-18T04:41:45.521Z,100.00
2022-09-18T04:46:48.513Z,100.00
2022-09-18T04:51:51.179Z,100.00
2022-09-18T04:56:52.923Z,100.00
2022-09-18T05:01:55.805Z,100.00
2022-09-18T05:06:57.543Z,100.00
2022-09-18T05:11:59.423Z,100.00
2022-09-18T05:17:01.910Z,100.00
2022-09-18T05:22:12.387Z,100.00
2022-09-18T05:27:18.168Z,100.00
2022-09-18T05:32:20.330Z,100.00
2022-09-18T05:37:22.360Z,100.00
2022-09-18T05:42:28.041Z,100.00
2022-09-18T05:47:35.195Z,100.00
2022-09-18T05:52:37.829Z,100.00
2022-09-18T05:57:41.285Z,100.00
2022-09-18T06:02:44.046Z,100.00
2022-09-18T06:07:48.232Z,100.00
2022-09-18T06:13:04.336Z,100.00
2022-09-18T06:18:06.883Z,100.00
2022-09-18T06:23:08.703Z,100.00
2022-09-18T06:28:20.383Z,100.00
2022-09-18T06:33:22.191Z,100.00
2022-09-18T06:38:23.845Z,100.00
2022-09-18T06:43:26.378Z,100.00
2022-09-18T06:48:48.582Z,100.00
2022-09-18T06:53:50.303Z,100.00
2022-09-18T06:58:53.381Z,100.00
2022-09-18T07:03:55.501Z,100.00
2022-09-18T07:09:00.420Z,100.00
2022-09-18T07:14:22.292Z,100.00
2022-09-18T07:19:26.160Z,100.00
2022-09-18T07:24:28.231Z,100.00
2022-09-18T07:29:29.886Z,100.00
2022-09-18T07:34:32.997Z,100.00
2022-09-18T07:39:34.976Z,100.00
2022-09-18T07:44:55.943Z,100.00
2022-09-18T07:49:58.728Z,100.00
2022-09-18T07:55:00.410Z,100.00
2022-09-18T08:00:08.737Z,100.00
2022-09-18T08:05:17.266Z,99.51
2022-09-18T08:10:27.246Z,97.41
2022-09-18T08:15:58.305Z,97.11
2022-09-18T08:21:18.747Z,96.20
2022-09-18T08:26:24.000Z,97.05
2022-09-18T08:31:27.702Z,96.59
2022-09-18T08:36:32.072Z,95.41
2022-09-18T08:42:14.708Z,95.82
2022-09-18T08:47:35.653Z,96.03
2022-09-18T08:52:40.909Z,94.91
2022-09-18T08:58:18.086Z,94.23
2022-09-18T09:03:49.182Z,92.51
2022-09-18T09:09:21.401Z,90.69
2022-09-18T09:15:00.185Z,89.17
2022-09-18T09:20:23.282Z,83.25
2022-09-18T09:25:38.594Z,84.39
2022-09-18T09:31:00.294Z,84.27
2022-09-18T09:36:27.358Z,83.37
2022-09-18T09:41:42.367Z,82.38
2022-09-18T09:46:54.097Z,84.89
2022-09-18T09:52:09.679Z,84.53
2022-09-18T09:57:19.192Z,84.05
2022-09-18T10:02:29.659Z,84.98
2022-09-18T10:07:39.740Z,85.19
2022-09-18T10:13:03.720Z,82.69
2022-09-18T10:18:11.464Z,81.42
2022-09-18T10:23:28.829Z,79.60
2022-09-18T10:28:34.039Z,81.20
2022-09-18T10:33:40.048Z,78.37
2022-09-18T10:38:47.971Z,77.72
2022-09-18T10:44:14.364Z,79.79
2022-09-18T10:49:33.598Z,88.00
2022-09-18T10:54:35.509Z,91.80
2022-09-18T10:59:41.608Z,95.03
2022-09-18T11:04:46.773Z,95.99
2022-09-18T11:09:49.406Z,95.90
2022-09-18T11:14:59.159Z,95.16
2022-09-18T11:20:01.603Z,90.28
2022-09-18T11:25:24.120Z,87.23
2022-09-18T11:30:32.093Z,78.22
2022-09-18T11:35:36.207Z,76.92
2022-09-18T11:40:46.001Z,78.47
2022-09-18T11:46:01.841Z,81.08
2022-09-18T11:51:05.412Z,95.26
2022-09-18T11:56:25.341Z,99.93
2022-09-18T12:01:34.543Z,100.00
2022-09-18T12:07:01.322Z,100.00
2022-09-18T12:12:13.225Z,100.00
2022-09-18T12:17:31.153Z,100.00
2022-09-18T12:22:41.644Z,100.00
2022-09-18T12:27:58.952Z,100.00
2022-09-18T12:33:13.491Z,100.00
2022-09-18T12:38:46.323Z,100.00
2022-09-18T12:44:00.120Z,100.00
2022-09-18T12:49:17.095Z,100.00
2022-09-18T12:54:25.030Z,100.00
2022-09-18T12:59:45.228Z,100.00
2022-09-18T13:04:49.902Z,100.00
2022-09-18T13:10:17.886Z,100.00
2022-09-18T13:15:28.291Z,100.00
2022-09-18T13:20:42.685Z,100.00
2022-09-18T13:25:44.303Z,100.00
2022-09-18T13:30:45.907Z,100.00
2022-09-18T13:35:56.992Z,100.00
2022-09-18T13:41:06.222Z,100.00
2022-09-18T13:46:08.332Z,98.82
2022-09-18T13:51:21.967Z,95.60
2022-09-18T13:56:23.625Z,95.23
2022-09-18T14:01:40.703Z,97.27
2022-09-18T14:06:44.002Z,98.29
2022-09-18T14:11:45.646Z,99.61
2022-09-18T14:16:48.647Z,100.00
2022-09-18T14:21:50.307Z,100.00
2022-09-18T14:27:00.224Z,100.00
2022-09-18T14:32:01.942Z,100.00
2022-09-18T14:37:18.834Z,100.00
2022-09-18T14:42:37.953Z,100.00
2022-09-18T14:47:47.016Z,100.00
2022-09-18T14:52:48.826Z,100.00
2022-09-18T14:57:59.040Z,100.00
2022-09-18T15:03:06.695Z,100.00
2022-09-18T15:08:17.470Z,96.02
2022-09-18T15:13:20.657Z,92.53
2022-09-18T15:18:23.894Z,92.96
2022-09-18T15:23:29.396Z,92.02
2022-09-18T15:28:33.143Z,91.28
2022-09-18T15:33:36.214Z,90.72
2022-09-18T15:38:42.428Z,86.95
2022-09-18T15:43:45.958Z,87.75
2022-09-18T15:48:48.144Z,85.77
2022-09-18T15:54:12.685Z,87.12
2022-09-18T15:59:22.540Z,85.17
2022-09-18T16:04:32.844Z,84.67
2022-09-18T16:09:42.601Z,84.64
2022-09-18T16:14:45.955Z,85.18
2022-09-18T16:19:47.581Z,85.13
2022-09-18T16:24:49.659Z,85.25
2022-09-18T16:29:51.370Z,85.26
2022-09-18T16:34:53.084Z,86.39
2022-09-18T16:39:54.777Z,86.87
2022-09-18T16:44:56.569Z,88.59
2022-09-18T16:49:58.228Z,89.98
2022-09-18T16:54:59.834Z,92.03
2022-09-18T17:00:04.909Z,92.86
2022-09-18T17:05:06.852Z,95.26
2022-09-18T17:10:08.756Z,95.33
2022-09-18T17:15:10.571Z,96.21
2022-09-18T17:20:14.043Z,97.69
2022-09-18T17:25:15.688Z,100.00
2022-09-18T17:30:17.465Z,100.00
2022-09-18T17:35:19.124Z,100.00
2022-09-18T17:40:20.799Z,100.00
2022-09-18T17:45:22.491Z,100.00
2022-09-18T17:50:24.756Z,100.00
2022-09-18T17:55:26.399Z,100.00
2022-09-18T18:00:28.215Z,100.00
2022-09-18T18:05:29.907Z,100.00
2022-09-18T18:10:31.607Z,100.00
2022-09-18T18:15:33.230Z,100.00
2022-09-18T18:20:34.846Z,100.00
2022-09-18T18:25:36.715Z,100.00
2022-09-18T18:30:38.965Z,100.00
2022-09-18T18:35:40.593Z,100.00
2022-09-18T18:40:42.389Z,100.00
2022-09-18T18:45:54.327Z,100.00
2022-09-18T18:50:59.422Z,100.00
2022-09-18T18:56:05.876Z,100.00
2022-09-18T19:01:09.033Z,100.00
2022-09-18T19:06:11.199Z,100.00
2022-09-18T19:11:15.075Z,100.00
2022-09-18T19:16:16.751Z,100.00
2022-09-18T19:21:20.495Z,100.00
2022-09-18T19:26:23.255Z,100.00
2022-09-18T19:31:25.629Z,100.00
2022-09-18T19:36:28.002Z,100.00
2022-09-18T19:41:48.065Z,100.00
2022-09-18T19:46:49.821Z,100.00
2022-09-18T19:51:51.489Z,100.00
2022-09-18T19:56:53.089Z,100.00
2022-09-18T20:01:55.334Z,100.00
2022-09-18T20:06:57.022Z,100.00
2022-09-18T20:11:58.778Z,100.00
2022-09-18T20:17:00.401Z,100.00
2022-09-18T20:22:02.694Z,100.00
2022-09-18T20:27:04.381Z,100.00
2022-09-18T20:32:06.399Z,100.00
2022-09-18T20:37:09.344Z,100.00
2022-09-18T20:42:10.974Z,100.00
2022-09-18T20:47:12.579Z,100.00
2022-09-18T20:52:14.706Z,100.00
2022-09-18T20:57:16.407Z,100.00
2022-09-18T21:02:18.121Z,100.00
2022-09-18T21:07:22.122Z,100.00
2022-09-18T21:12:23.719Z,100.00
2022-09-18T21:17:25.328Z,100.00
2022-09-18T21:22:28.378Z,100.00
2022-09-18T21:27:30.002Z,100.00
2022-09-18T21:32:31.658Z,100.00
2022-09-18T21:37:33.319Z,100.00
2022-09-18T21:42:35.601Z,100.00
2022-09-18T21:47:37.209Z,100.00
2022-09-18T21:52:40.811Z,100.00
2022-09-18T21:57:42.441Z,100.00
2022-09-18T22:02:44.042Z,100.00
2022-09-18T22:07:46.000Z,100.00
2022-09-18T22:12:47.731Z,100.00
2022-09-18T22:17:49.582Z,100.00
2022-09-18T22:22:51.207Z,100.00
2022-09-18T22:27:52.821Z,100.00
2022-09-18T22:32:54.790Z,100.00
2022-09-18T22:37:56.415Z,100.00
2022-09-18T22:42:58.067Z,100.00
2022-09-18T22:47:59.824Z,100.00
2022-09-18T22:53:01.498Z,100.00
2022-09-18T22:58:06.235Z,100.00
2022-09-18T23:03:08.117Z,100.00
2022-09-18T23:08:11.247Z,100.00
2022-09-18T23:13:12.913Z,100.00
2022-09-18T23:18:14.596Z,100.00
2022-09-18T23:23:16.789Z,100.00
2022-09-18T23:28:18.406Z,100.00
2022-09-18T23:33:20.016Z,100.00
2022-09-18T23:38:21.689Z,100.00
2022-09-18T23:43:23.317Z,100.00
2022-09-18T23:48:25.208Z,100.00
2022-09-18T23:53:26.940Z,100.00
2022-09-18T23:58:28.584Z,100.00
